createdAt,value
2023-05-12T00:01:25.830Z,4.00
2023-05-12T00:03:54.144Z,3.97
2023-05-12T00:06:21.758Z,4.10
2023-05-12T00:08:49.136Z,4.37
2023-05-12T00:11:16.772Z,3.72
2023-05-12T00:13:44.157Z,3.80
2023-05-12T00:16:11.630Z,4.00
2023-05-12T00:18:39.352Z,3.80
2023-05-12T00:21:08.697Z,4.00
2023-05-12T00:23:36.233Z,4.72
2023-05-12T00:26:03.826Z,4.30
2023-05-12T00:28:31.786Z,4.22
2023-05-12T00:31:03.835Z,5.30
2023-05-12T00:33:31.512Z,4.30
2023-05-12T00:36:01.213Z,4.50
2023-05-12T00:38:28.576Z,4.18
2023-05-12T00:40:56.285Z,4.75
2023-05-12T00:43:23.612Z,4.25
2023-05-12T00:45:51.117Z,4.72
2023-05-12T00:48:18.789Z,4.37
2023-05-12T00:50:46.269Z,4.05
2023-05-12T00:53:13.630Z,4.43
2023-05-12T00:55:41.545Z,4.70
2023-05-12T00:58:09.152Z,4.43
2023-05-12T01:00:36.712Z,4.62
2023-05-12T01:03:04.608Z,3.72
2023-05-12T01:05:35.907Z,3.90
2023-05-12T01:08:03.628Z,4.45
2023-05-12T01:10:31.000Z,4.35
2023-05-12T01:12:58.492Z,4.07
2023-05-12T01:15:26.256Z,4.22
2023-05-12T01:17:56.403Z,4.10
2023-05-12T01:20:26.025Z,3.62
2023-05-12T01:22:53.925Z,4.03
2023-05-12T01:25:22.814Z,4.47
2023-05-12T01:27:50.189Z,4.37
2023-05-12T01:30:18.616Z,4.20
2023-05-12T01:32:46.194Z,4.35
2023-05-12T01:35:13.600Z,4.45
2023-05-12T01:37:41.770Z,4.35
2023-05-12T01:40:09.360Z,4.30
2023-05-12T01:42:39.230Z,5.40
2023-05-12T01:45:07.935Z,4.57
2023-05-12T01:47:35.541Z,4.55
2023-05-12T01:50:03.401Z,5.10
2023-05-12T01:52:31.117Z,5.18
2023-05-12T01:54:58.466Z,4.28
2023-05-12T01:57:26.268Z,4.32
2023-05-12T01:59:54.742Z,4.53
2023-05-12T02:02:22.118Z,4.12
2023-05-12T02:04:49.775Z,3.67
2023-05-12T02:07:17.447Z,3.95
2023-05-12T02:09:45.262Z,3.83
2023-05-12T02:12:13.514Z,4.53
2023-05-12T02:14:40.886Z,4.00
2023-05-12T02:17:08.702Z,4.47
2023-05-12T02:19:36.465Z,4.37
2023-05-12T02:22:03.906Z,4.28
2023-05-12T02:24:31.277Z,4.12
2023-05-12T02:26:58.933Z,4.43
2023-05-12T02:29:26.283Z,4.53
2023-05-12T02:31:53.834Z,4.32
2023-05-12T02:34:22.118Z,4.70
2023-05-12T02:36:49.445Z,4.10
2023-05-12T02:39:17.605Z,4.57
2023-05-12T02:41:45.252Z,4.20
2023-05-12T02:44:12.702Z,4.07
2023-05-12T02:46:40.106Z,4.25
2023-05-12T02:49:07.848Z,4.43
2023-05-12T02:51:35.198Z,4.43
2023-05-12T02:54:02.556Z,4.90
2023-05-12T02:56:31.944Z,4.60
2023-05-12T02:59:01.189Z,4.10
2023-05-12T03:01:28.574Z,4.12
2023-05-12T03:03:56.297Z,4.12
2023-05-12T03:06:23.676Z,5.85
2023-05-12T03:08:51.137Z,4.65
2023-05-12T03:11:18.797Z,8.18
2023-05-12T03:13:46.160Z,6.62
2023-05-12T03:16:13.678Z,4.22
2023-05-12T03:18:41.302Z,4.45
2023-05-12T03:21:08.650Z,4.68
2023-05-12T03:23:37.430Z,4.32
2023-05-12T03:26:05.054Z,4.25
2023-05-12T03:28:32.482Z,4.40
2023-05-12T03:30:59.873Z,4.25
2023-05-12T03:33:27.551Z,4.22
2023-05-12T03:35:55.009Z,4.15
2023-05-12T03:38:23.629Z,4.22
2023-05-12T03:40:54.204Z,4.37
2023-05-12T03:43:21.630Z,5.05
2023-05-12T03:45:49.413Z,3.92
2023-05-12T03:48:17.075Z,4.47
2023-05-12T03:50:44.455Z,4.37
2023-05-12T03:53:11.877Z,4.50
2023-05-12T03:55:39.475Z,4.87
2023-05-12T03:58:07.305Z,4.72
2023-05-12T04:00:35.179Z,4.95
2023-05-12T04:03:02.959Z,4.20
2023-05-12T04:05:30.346Z,4.60
2023-05-12T04:07:57.774Z,4.28
2023-05-12T04:10:25.368Z,4.50
2023-05-12T04:12:52.688Z,4.30
2023-05-12T04:15:20.448Z,3.87
2023-05-12T04:17:48.434Z,4.43
2023-05-12T04:20:16.163Z,4.45
2023-05-12T04:22:44.283Z,4.45
2023-05-12T04:25:11.965Z,4.70
2023-05-12T04:27:39.722Z,4.43
2023-05-12T04:30:07.726Z,4.50
2023-05-12T04:32:36.383Z,4.45
2023-05-12T04:35:04.155Z,4.72
2023-05-12T04:37:31.713Z,4.53
2023-05-12T04:39:59.461Z,4.25
2023-05-12T04:42:27.277Z,4.50
2023-05-12T04:44:54.646Z,4.40
2023-05-12T04:47:22.468Z,4.50
2023-05-12T04:49:49.844Z,4.93
2023-05-12T04:52:17.199Z,4.22
2023-05-12T04:54:44.819Z,4.62
2023-05-12T04:57:12.149Z,4.62
2023-05-12T04:59:41.459Z,4.78
2023-05-12T05:02:09.598Z,4.35
2023-05-12T05:04:36.968Z,4.45
2023-05-12T05:07:05.034Z,4.28
2023-05-12T05:09:34.483Z,3.97
2023-05-12T05:12:03.577Z,4.55
2023-05-12T05:14:31.180Z,5.30
2023-05-12T05:16:59.946Z,4.45
2023-05-12T05:19:39.327Z,4.60
2023-05-12T05:22:15.070Z,4.60
2023-05-12T05:24:42.390Z,5.05
2023-05-12T05:27:09.755Z,5.25
2023-05-12T05:29:38.011Z,4.70
2023-05-12T05:32:05.680Z,5.03
2023-05-12T05:34:33.157Z,4.87
2023-05-12T05:37:00.984Z,5.18
2023-05-12T05:39:30.848Z,4.28
2023-05-12T05:41:58.285Z,4.25
2023-05-12T05:44:25.983Z,5.20
2023-05-12T05:46:54.084Z,4.75
2023-05-12T05:49:22.110Z,5.22
2023-05-12T05:51:49.763Z,4.25
2023-05-12T05:54:17.580Z,4.28
2023-05-12T05:56:45.948Z,4.93
2023-05-12T05:59:14.312Z,4.72
2023-05-12T06:01:41.884Z,4.43
2023-05-12T06:04:10.202Z,4.93
2023-05-12T06:06:38.934Z,4.22
2023-05-12T06:09:08.816Z,4.30
2023-05-12T06:11:36.455Z,4.20
2023-05-12T06:14:03.810Z,3.70
2023-05-12T06:16:31.267Z,3.90
2023-05-12T06:18:58.998Z,4.28
2023-05-12T06:21:26.433Z,3.85
2023-05-12T06:23:56.087Z,3.80
2023-05-12T06:26:23.704Z,4.60
2023-05-12T06:28:51.191Z,4.22
2023-05-12T06:31:19.141Z,4.20
2023-05-12T06:33:47.997Z,4.18
2023-05-12T06:36:15.410Z,5.37
2023-05-12T06:38:42.798Z,4.25
2023-05-12T06:41:11.006Z,4.82
2023-05-12T06:43:38.383Z,4.43
2023-05-12T06:46:06.213Z,4.30
2023-05-12T06:48:33.987Z,4.25
2023-05-12T06:51:01.397Z,4.05
2023-05-12T06:53:29.768Z,4.07
2023-05-12T06:55:57.417Z,4.85
2023-05-12T06:58:24.754Z,4.95
2023-05-12T07:00:52.129Z,5.15
2023-05-12T07:03:19.813Z,4.07
2023-05-12T07:05:47.463Z,4.80
2023-05-12T07:08:17.472Z,3.95
2023-05-12T07:10:45.142Z,4.90
2023-05-12T07:13:12.926Z,4.47
2023-05-12T07:15:40.311Z,5.40
2023-05-12T07:18:08.022Z,4.40
2023-05-12T07:20:35.398Z,5.47
2023-05-12T07:23:02.760Z,4.93
2023-05-12T07:25:31.225Z,5.18
2023-05-12T07:27:58.617Z,5.37
2023-05-12T07:30:26.113Z,5.25
2023-05-12T07:32:53.973Z,5.18
2023-05-12T07:35:22.025Z,4.97
2023-05-12T07:37:49.655Z,6.35
2023-05-12T07:40:17.392Z,4.78
2023-05-12T07:42:44.744Z,5.35
2023-05-12T07:45:12.138Z,4.65
2023-05-12T07:47:39.875Z,4.93
2023-05-12T07:50:07.744Z,5.07
2023-05-12T07:52:35.183Z,4.18
2023-05-12T07:55:02.821Z,4.65
2023-05-12T07:57:30.175Z,4.97
2023-05-12T07:59:57.533Z,4.82
2023-05-12T08:02:25.373Z,4.25
2023-05-12T08:04:53.072Z,5.05
2023-05-12T08:07:20.419Z,4.87
2023-05-12T08:09:47.797Z,4.55
2023-05-12T08:12:15.385Z,4.80
2023-05-12T08:14:42.808Z,5.10
2023-05-12T08:17:10.685Z,4.82
2023-05-12T08:19:38.383Z,5.55
2023-05-12T08:22:06.741Z,4.80
2023-05-12T08:24:34.122Z,5.37
2023-05-12T08:27:01.720Z,5.18
2023-05-12T08:29:29.101Z,4.95
2023-05-12T08:31:57.394Z,4.95
2023-05-12T08:34:25.360Z,5.03
2023-05-12T08:36:53.157Z,4.15
2023-05-12T08:39:20.890Z,5.05
2023-05-12T08:42:00.967Z,5.28
2023-05-12T08:44:28.349Z,4.78
2023-05-12T08:46:57.447Z,5.10
2023-05-12T08:49:24.996Z,5.95
2023-05-12T08:51:57.785Z,6.03
2023-05-12T08:54:27.346Z,5.78
2023-05-12T08:59:25.235Z,5.45
2023-05-12T09:01:53.090Z,6.30
2023-05-12T09:04:20.742Z,6.15
2023-05-12T09:06:48.135Z,5.85
2023-05-12T09:09:16.790Z,5.30
2023-05-12T09:11:44.707Z,4.93
2023-05-12T09:14:21.587Z,5.97
2023-05-12T09:16:49.584Z,5.32
2023-05-12T09:19:21.026Z,5.75
2023-05-12T09:21:48.764Z,4.75
2023-05-12T09:24:16.404Z,4.82
2023-05-12T09:26:45.385Z,5.65
2023-05-12T09:29:20.823Z,5.50
2023-05-12T09:31:57.736Z,5.07
2023-05-12T09:34:31.773Z,5.55
2023-05-12T09:37:01.059Z,5.43
2023-05-12T09:39:29.094Z,4.57
2023-05-12T09:41:56.564Z,4.72
2023-05-12T09:44:24.362Z,4.78
2023-05-12T09:46:52.757Z,5.57
2023-05-12T09:49:21.234Z,5.25
2023-05-12T09:52:01.285Z,5.40
2023-05-12T09:54:29.619Z,5.00
2023-05-12T09:57:01.504Z,5.50
2023-05-12T09:59:33.297Z,4.53
2023-05-12T10:02:01.704Z,4.82
2023-05-12T10:04:31.376Z,4.35
2023-05-12T10:06:58.781Z,4.57
2023-05-12T10:09:31.758Z,4.18
2023-05-12T10:11:59.390Z,5.10
2023-05-12T10:14:26.737Z,5.10
2023-05-12T10:16:54.352Z,5.47
2023-05-12T10:19:22.038Z,5.65
2023-05-12T10:21:49.405Z,5.82
2023-05-12T10:24:19.616Z,6.43
2023-05-12T10:26:47.506Z,5.47
2023-05-12T10:29:14.952Z,5.72
2023-05-12T10:31:42.842Z,6.45
2023-05-12T10:34:16.576Z,5.82
2023-05-12T10:36:46.470Z,6.87
2023-05-12T10:39:15.551Z,5.95
2023-05-12T10:41:43.030Z,5.80
2023-05-12T10:44:10.963Z,6.78
2023-05-12T10:46:38.752Z,5.93
2023-05-12T10:49:06.027Z,6.93
2023-05-12T10:51:43.185Z,5.90
2023-05-12T10:54:12.693Z,6.22
2023-05-12T10:56:40.168Z,6.50
2023-05-12T10:59:27.390Z,6.87
2023-05-12T11:02:03.549Z,6.65
2023-05-12T11:04:48.804Z,6.57
2023-05-12T11:07:20.351Z,6.80
2023-05-12T11:09:57.449Z,5.78
2023-05-12T11:12:27.733Z,6.97
2023-05-12T11:14:55.193Z,6.45
2023-05-12T11:17:22.617Z,6.28
2023-05-12T11:19:50.675Z,6.37
2023-05-12T11:22:20.010Z,6.90
2023-05-12T11:24:47.927Z,7.70
2023-05-12T11:27:16.805Z,7.43
2023-05-12T11:29:46.983Z,6.70
2023-05-12T11:32:15.711Z,6.68
2023-05-12T11:34:43.788Z,6.50
2023-05-12T11:37:11.498Z,7.00
2023-05-12T11:39:38.885Z,6.62
2023-05-12T11:42:13.592Z,6.22
2023-05-12T11:44:48.439Z,6.40
2023-05-12T11:47:16.725Z,8.05
2023-05-12T11:49:54.456Z,6.50
2023-05-12T11:52:23.831Z,6.55
2023-05-12T11:54:57.932Z,7.35
2023-05-12T11:57:29.637Z,6.85
2023-05-12T12:00:01.299Z,6.78
2023-05-12T12:02:28.964Z,6.87
2023-05-12T12:04:56.879Z,7.25
2023-05-12T12:07:34.613Z,8.00
2023-05-12T12:10:15.457Z,7.10
2023-05-12T12:12:42.898Z,6.87
2023-05-12T12:15:11.059Z,6.87
2023-05-12T12:17:39.655Z,6.60
2023-05-12T12:20:09.130Z,7.05
2023-05-12T12:22:37.006Z,6.37
2023-05-12T12:25:04.712Z,7.35
2023-05-12T12:27:32.145Z,6.28
2023-05-12T12:29:59.901Z,7.25
2023-05-12T12:32:27.389Z,7.68
2023-05-12T12:34:59.562Z,7.07
2023-05-12T12:37:27.205Z,7.53
2023-05-12T12:39:55.453Z,7.07
2023-05-12T12:42:23.060Z,6.60
2023-05-12T12:44:51.491Z,6.65
2023-05-12T12:47:18.951Z,7.32
2023-05-12T12:49:46.471Z,7.40
2023-05-12T12:52:14.116Z,6.50
2023-05-12T12:54:41.861Z,7.82
2023-05-12T12:57:09.225Z,7.03
2023-05-12T12:59:37.299Z,6.30
2023-05-12T13:02:04.816Z,7.22
2023-05-12T13:04:32.225Z,7.37
2023-05-12T13:06:59.939Z,7.85
2023-05-12T13:09:27.856Z,6.57
2023-05-12T13:11:55.201Z,7.43
2023-05-12T13:14:24.419Z,6.87
2023-05-12T13:16:52.912Z,7.80
2023-05-12T13:19:20.358Z,7.15
2023-05-12T13:21:48.031Z,7.10
2023-05-12T13:24:15.394Z,7.45
2023-05-12T13:26:43.058Z,8.15
2023-05-12T13:29:10.920Z,8.13
2023-05-12T13:31:38.784Z,8.15
2023-05-12T13:34:06.271Z,8.07
2023-05-12T13:36:34.719Z,8.20
2023-05-12T13:39:03.646Z,8.00
2023-05-12T13:41:31.025Z,7.82
2023-05-12T13:43:58.675Z,7.55
2023-05-12T13:46:26.093Z,7.55
2023-05-12T13:48:53.484Z,7.50
2023-05-12T13:51:21.131Z,6.95
2023-05-12T13:53:48.497Z,6.90
2023-05-12T13:56:16.663Z,7.78
2023-05-12T13:58:44.500Z,9.45
2023-05-12T14:01:11.908Z,7.72
2023-05-12T14:03:40.384Z,7.28
2023-05-12T14:06:07.827Z,8.13
2023-05-12T14:08:35.357Z,6.97
2023-05-12T14:11:03.086Z,8.32
2023-05-12T14:13:31.015Z,7.78
2023-05-12T14:15:58.650Z,8.07
2023-05-12T14:18:26.362Z,7.68
2023-05-12T14:20:53.739Z,7.50
2023-05-12T14:23:21.123Z,6.65
2023-05-12T14:25:48.855Z,7.03
2023-05-12T14:28:16.270Z,16.92
2023-05-12T14:30:45.220Z,10.57
2023-05-12T14:33:13.722Z,11.20
2023-05-12T14:35:41.230Z,9.40
2023-05-12T14:38:08.610Z,7.43
2023-05-12T14:40:37.223Z,7.75
2023-05-12T14:43:05.956Z,7.53
2023-05-12T14:45:33.450Z,7.87
2023-05-12T14:48:01.163Z,6.80
2023-05-12T14:50:28.616Z,8.30
2023-05-12T14:52:56.140Z,8.10
2023-05-12T14:55:24.515Z,7.18
2023-05-12T14:57:51.923Z,6.85
2023-05-12T15:00:21.223Z,7.10
2023-05-12T15:02:48.969Z,7.68
2023-05-12T15:05:16.437Z,7.10
2023-05-12T15:07:43.795Z,7.65
2023-05-12T15:10:11.442Z,6.68
2023-05-12T15:12:38.862Z,7.40
2023-05-12T15:15:08.565Z,6.95
2023-05-12T15:17:36.421Z,6.47
2023-05-12T15:20:04.530Z,6.87
2023-05-12T15:22:32.307Z,6.57
2023-05-12T15:24:59.957Z,6.80
2023-05-12T15:27:27.409Z,6.80
2023-05-12T15:29:54.792Z,7.25
2023-05-12T15:32:22.417Z,7.12
2023-05-12T15:34:49.846Z,7.10
2023-05-12T15:37:17.242Z,6.70
2023-05-12T15:39:44.882Z,8.40
2023-05-12T15:42:14.459Z,7.20
2023-05-12T15:44:41.957Z,7.00
2023-05-12T15:47:09.559Z,6.57
2023-05-12T15:49:36.880Z,7.72
2023-05-12T15:52:04.431Z,7.80
2023-05-12T15:54:32.068Z,7.60
2023-05-12T15:56:59.482Z,7.87
2023-05-12T15:59:26.865Z,6.85
2023-05-12T16:01:55.402Z,8.00
2023-05-12T16:04:24.396Z,6.68
2023-05-12T16:06:51.756Z,7.43
2023-05-12T16:09:19.097Z,8.38
2023-05-12T16:11:46.736Z,8.35
2023-05-12T16:14:14.094Z,7.30
2023-05-12T16:16:48.436Z,7.40
2023-05-12T16:19:16.227Z,7.15
2023-05-12T16:21:44.462Z,7.22
2023-05-12T16:24:11.940Z,7.90
2023-05-12T16:26:40.888Z,6.65
2023-05-12T16:29:08.472Z,8.82
2023-05-12T16:31:36.457Z,7.25
2023-05-12T16:34:04.229Z,6.62
2023-05-12T16:36:32.169Z,7.65
2023-05-12T16:38:59.970Z,8.65
2023-05-12T16:41:29.180Z,8.65
2023-05-12T16:43:56.886Z,7.87
2023-05-12T16:46:24.368Z,8.93
2023-05-12T16:48:52.357Z,8.05
2023-05-12T16:51:20.427Z,8.13
2023-05-12T16:53:48.047Z,8.55
2023-05-12T16:56:15.702Z,6.35
2023-05-12T16:58:44.310Z,8.63
2023-05-12T17:01:11.878Z,7.55
2023-05-12T17:03:39.738Z,7.93
2023-05-12T17:06:07.329Z,7.65
2023-05-12T17:08:37.533Z,7.15
2023-05-12T17:11:05.241Z,6.87
2023-05-12T17:13:35.681Z,7.50
2023-05-12T17:16:03.075Z,7.55
2023-05-12T17:18:31.149Z,8.98
2023-05-12T17:20:58.892Z,7.40
2023-05-12T17:23:26.832Z,8.90
2023-05-12T17:25:54.442Z,8.18
2023-05-12T17:28:22.341Z,7.82
2023-05-12T17:30:50.185Z,7.12
2023-05-12T17:33:17.963Z,8.05
2023-05-12T17:35:53.590Z,6.70
2023-05-12T17:38:31.322Z,7.45
2023-05-12T17:40:58.689Z,9.05
2023-05-12T17:43:26.032Z,9.07
2023-05-12T17:45:53.704Z,8.60
2023-05-12T17:48:21.013Z,8.35
2023-05-12T17:50:48.537Z,7.22
2023-05-12T17:53:16.151Z,8.40
2023-05-12T17:55:43.521Z,8.23
2023-05-12T17:58:10.897Z,7.78
2023-05-12T18:00:38.516Z,8.35
2023-05-12T18:03:06.207Z,8.88
2023-05-12T18:05:34.861Z,7.90
2023-05-12T18:08:02.845Z,8.23
2023-05-12T18:10:30.544Z,7.18
2023-05-12T18:12:57.912Z,8.15
2023-05-12T18:15:25.242Z,7.40
2023-05-12T18:17:53.180Z,7.10
2023-05-12T18:20:20.666Z,7.47
2023-05-12T18:22:48.355Z,7.25
2023-05-12T18:25:16.017Z,6.97
2023-05-12T18:27:43.425Z,7.25
2023-05-12T18:30:11.343Z,7.10
2023-05-12T18:32:39.676Z,6.47
2023-05-12T18:35:07.649Z,6.50
2023-05-12T18:37:35.043Z,6.93
2023-05-12T18:40:02.681Z,7.00
2023-05-12T18:42:30.072Z,6.97
2023-05-12T18:44:57.526Z,7.82
2023-05-12T18:47:25.218Z,7.35
2023-05-12T18:49:53.230Z,7.35
2023-05-12T18:52:21.295Z,7.97
2023-05-12T18:54:49.772Z,7.35
2023-05-12T18:57:17.431Z,6.75
2023-05-12T18:59:44.825Z,7.05
2023-05-12T19:02:12.480Z,6.78
2023-05-12T19:04:39.953Z,6.60
2023-05-12T19:07:09.860Z,6.72
2023-05-12T19:09:37.774Z,6.32
2023-05-12T19:12:06.073Z,6.78
2023-05-12T19:14:34.520Z,6.93
2023-05-12T19:17:02.136Z,6.55
2023-05-12T19:19:29.560Z,6.70
2023-05-12T19:21:56.984Z,5.85
2023-05-12T19:24:25.478Z,5.90
2023-05-12T19:26:52.855Z,5.53
2023-05-12T19:29:20.315Z,6.32
2023-05-12T19:31:48.053Z,5.93
2023-05-12T19:34:16.357Z,7.78
2023-05-12T19:36:43.732Z,6.35
2023-05-12T19:39:11.388Z,6.65
2023-05-12T19:41:39.997Z,5.87
2023-05-12T19:44:07.390Z,6.43
2023-05-12T19:46:35.081Z,6.15
2023-05-12T19:49:02.573Z,6.12
2023-05-12T19:51:30.288Z,6.20
2023-05-12T19:53:57.941Z,6.40
2023-05-12T19:56:25.344Z,6.85
2023-05-12T19:58:52.707Z,6.80
2023-05-12T20:01:20.460Z,6.97
2023-05-12T20:03:48.206Z,6.60
2023-05-12T20:06:15.606Z,7.28
2023-05-12T20:08:42.953Z,6.30
2023-05-12T20:11:10.628Z,7.00
2023-05-12T20:13:38.041Z,8.13
2023-05-12T20:16:05.834Z,8.15
2023-05-12T20:18:33.517Z,6.60
2023-05-12T20:21:01.150Z,7.87
2023-05-12T20:23:28.458Z,7.97
2023-05-12T20:25:56.099Z,6.40
2023-05-12T20:28:24.158Z,8.23
2023-05-12T20:30:51.768Z,7.78
2023-05-12T20:33:19.450Z,7.78
2023-05-12T20:35:47.131Z,7.75
2023-05-12T20:38:14.460Z,7.43
2023-05-12T20:40:42.085Z,7.37
2023-05-12T20:43:09.426Z,9.52
2023-05-12T20:45:37.518Z,10.93
2023-05-12T20:48:05.323Z,8.70
2023-05-12T20:50:32.772Z,8.70
2023-05-12T20:53:00.149Z,12.30
2023-05-12T20:55:27.733Z,9.95
2023-05-12T20:57:55.335Z,8.25
2023-05-12T21:00:22.714Z,7.70
2023-05-12T21:02:52.222Z,7.82
2023-05-12T21:05:20.742Z,7.22
2023-05-12T21:07:48.237Z,6.95
2023-05-12T21:10:16.206Z,7.68
2023-05-12T21:12:44.062Z,7.55
2023-05-12T21:15:11.461Z,7.72
2023-05-12T21:17:39.644Z,7.55
2023-05-12T21:20:11.878Z,7.93
2023-05-12T21:22:40.721Z,8.60
2023-05-12T21:25:08.564Z,8.98
2023-05-12T21:27:41.770Z,9.18
2023-05-12T21:30:09.829Z,9.15
2023-05-12T21:32:37.229Z,9.13
2023-05-12T21:35:05.270Z,8.43
2023-05-12T21:37:32.926Z,8.25
2023-05-12T21:40:00.306Z,7.93
2023-05-12T21:42:27.661Z,8.93
2023-05-12T21:44:55.303Z,8.68
2023-05-12T21:47:22.803Z,8.30
2023-05-12T21:49:54.956Z,9.02
2023-05-12T21:52:22.898Z,9.25
2023-05-12T21:54:50.257Z,8.50
2023-05-12T21:57:17.645Z,8.88
2023-05-12T21:59:45.280Z,8.45
2023-05-12T22:02:13.214Z,8.98
2023-05-12T22:04:40.896Z,8.85
2023-05-12T22:07:08.670Z,9.05
2023-05-12T22:09:36.019Z,8.50
2023-05-12T22:12:03.740Z,8.30
2023-05-12T22:14:31.251Z,7.75
2023-05-12T22:16:58.701Z,8.10
2023-05-12T22:19:26.352Z,7.93
2023-05-12T22:21:54.806Z,7.57
2023-05-12T22:24:22.164Z,8.80
2023-05-12T22:26:49.807Z,8.30
2023-05-12T22:29:17.188Z,6.55
2023-05-12T22:31:44.594Z,7.15
2023-05-12T22:34:12.270Z,7.62
2023-05-12T22:36:39.630Z,7.85
2023-05-12T22:39:06.966Z,7.28
2023-05-12T22:41:34.634Z,6.95
2023-05-12T22:44:02.033Z,6.70
2023-05-12T22:46:29.397Z,5.87
2023-05-12T22:48:57.035Z,7.18
2023-05-12T22:51:24.417Z,7.05
2023-05-12T22:53:51.799Z,7.05
2023-05-12T22:56:19.423Z,7.43
2023-05-12T22:58:46.937Z,6.72
2023-05-12T23:01:14.381Z,7.07
2023-05-12T23:03:42.076Z,7.62
2023-05-12T23:06:09.427Z,7.70
2023-05-12T23:08:36.750Z,7.75
2023-05-12T23:11:04.415Z,7.65
2023-05-12T23:13:31.820Z,6.70
2023-05-12T23:15:59.209Z,6.72
2023-05-12T23:18:26.828Z,6.55
2023-05-12T23:20:54.162Z,8.20
2023-05-12T23:23:21.538Z,7.32
2023-05-12T23:25:49.626Z,7.05
2023-05-12T23:28:17.082Z,7.70
2023-05-12T23:30:44.483Z,6.68
2023-05-12T23:33:12.205Z,6.80
2023-05-12T23:35:39.634Z,6.45
2023-05-12T23:38:06.959Z,7.30
2023-05-12T23:40:38.884Z,6.45
2023-05-12T23:43:06.568Z,6.97
2023-05-12T23:45:34.098Z,6.35
2023-05-12T23:48:01.907Z,6.43
2023-05-12T23:50:29.284Z,6.03
2023-05-12T23:52:56.668Z,7.05
2023-05-12T23:55:24.297Z,7.25
2023-05-12T23:57:51.628Z,6.20
